sensor_id;sensor_type;location;lat;lon;timestamp;temperature;humidity
53802;DHT22;39709;53.334;6.534;2023-07-31T00:00:49;16.70;99.90
53802;DHT22;39709;53.334;6.534;2023-07-31T00:03:15;16.60;99.90
53802;DHT22;39709;53.334;6.534;2023-07-31T00:05:41;16.60;99.90
53802;DHT22;39709;53.334;6.534;2023-07-31T00:08:06;16.70;99.90
53802;DHT22;39709;53.334;6.534;2023-07-31T00:10:32;16.70;99.90
53802;DHT22;39709;53.334;6.534;2023-07-31T00:12:59;16.60;99.90
53802;DHT22;39709;53.334;6.534;2023-07-31T00:15:24;16.60;99.90
53802;DHT22;39709;53.334;6.534;2023-07-31T00:17:50;16.60;99.90
53802;DHT22;39709;53.334;6.534;2023-07-31T00:20:16;16.60;99.90
53802;DHT22;39709;53.334;6.534;2023-07-31T00:22:41;16.60;99.90
53802;DHT22;39709;53.334;6.534;2023-07-31T00:25:07;16.60;99.90
53802;DHT22;39709;53.334;6.534;2023-07-31T00:27:33;16.60;99.90
53802;DHT22;39709;53.334;6.534;2023-07-31T00:29:59;16.60;99.90
53802;DHT22;39709;53.334;6.534;2023-07-31T00:32:24;16.60;99.90
53802;DHT22;39709;53.334;6.534;2023-07-31T00:34:50;16.60;99.90
53802;DHT22;39709;53.334;6.534;2023-07-31T00:37:16;16.60;99.90
53802;DHT22;39709;53.334;6.534;2023-07-31T00:39:41;16.50;99.90
53802;DHT22;39709;53.334;6.534;2023-07-31T00:42:07;16.50;99.90
53802;DHT22;39709;53.334;6.534;2023-07-31T00:44:33;16.50;99.90
53802;DHT22;39709;53.334;6.534;2023-07-31T00:46:59;16.50;99.90
53802;DHT22;39709;53.334;6.534;2023-07-31T00:49:26;16.50;99.90
53802;DHT22;39709;53.334;6.534;2023-07-31T00:51:52;16.40;99.90
53802;DHT22;39709;53.334;6.534;2023-07-31T00:54:18;16.50;99.90
53802;DHT22;39709;53.334;6.534;2023-07-31T00:56:45;16.50;99.90
53802;DHT22;39709;53.334;6.534;2023-07-31T00:59:12;16.40;99.90
53802;DHT22;39709;53.334;6.534;2023-07-31T01:01:37;16.40;99.90
53802;DHT22;39709;53.334;6.534;2023-07-31T01:04:04;16.50;99.90
53802;DHT22;39709;53.334;6.534;2023-07-31T01:09:37;16.40;99.90
53802;DHT22;39709;53.334;6.534;2023-07-31T01:12:07;16.50;99.90
53802;DHT22;39709;53.334;6.534;2023-07-31T01:14:33;16.40;99.90
53802;DHT22;39709;53.334;6.534;2023-07-31T01:16:58;16.40;99.90
53802;DHT22;39709;53.334;6.534;2023-07-31T01:19:25;16.50;99.90
53802;DHT22;39709;53.334;6.534;2023-07-31T01:27:53;16.40;99.90
53802;DHT22;39709;53.334;6.534;2023-07-31T01:30:25;16.30;99.90
53802;DHT22;39709;53.334;6.534;2023-07-31T01:32:54;16.30;99.90
53802;DHT22;39709;53.334;6.534;2023-07-31T01:35:21;16.20;99.90
53802;DHT22;39709;53.334;6.534;2023-07-31T01:37:47;16.20;99.90
53802;DHT22;39709;53.334;6.534;2023-07-31T01:40:12;16.20;99.90
53802;DHT22;39709;53.334;6.534;2023-07-31T01:42:38;16.10;99.90
53802;DHT22;39709;53.334;6.534;2023-07-31T01:45:04;16.10;99.90
53802;DHT22;39709;53.334;6.534;2023-07-31T01:47:30;16.10;99.90
53802;DHT22;39709;53.334;6.534;2023-07-31T01:49:56;16.10;99.90
53802;DHT22;39709;53.334;6.534;2023-07-31T01:52:21;16.10;99.90
53802;DHT22;39709;53.334;6.534;2023-07-31T01:54:47;16.20;99.90
53802;DHT22;39709;53.334;6.534;2023-07-31T01:57:13;16.10;99.90
53802;DHT22;39709;53.334;6.534;2023-07-31T01:59:38;16.10;99.90
53802;DHT22;39709;53.334;6.534;2023-07-31T02:02:04;16.10;99.90
53802;DHT22;39709;53.334;6.534;2023-07-31T02:04:30;16.20;99.90
53802;DHT22;39709;53.334;6.534;2023-07-31T02:06:55;16.20;99.90
53802;DHT22;39709;53.334;6.534;2023-07-31T02:09:21;16.10;99.90
53802;DHT22;39709;53.334;6.534;2023-07-31T02:11:47;16.10;99.90
53802;DHT22;39709;53.334;6.534;2023-07-31T02:14:12;16.10;99.90
53802;DHT22;39709;53.334;6.534;2023-07-31T02:16:38;16.10;99.90
53802;DHT22;39709;53.334;6.534;2023-07-31T02:19:04;16.10;99.90
53802;DHT22;39709;53.334;6.534;2023-07-31T02:21:29;16.10;99.90
53802;DHT22;39709;53.334;6.534;2023-07-31T02:23:55;16.00;99.90
53802;DHT22;39709;53.334;6.534;2023-07-31T02:26:21;16.00;99.90
53802;DHT22;39709;53.334;6.534;2023-07-31T02:28:46;16.00;99.90
53802;DHT22;39709;53.334;6.534;2023-07-31T02:31:12;15.90;99.90
53802;DHT22;39709;53.334;6.534;2023-07-31T02:33:37;16.00;99.90
53802;DHT22;39709;53.334;6.534;2023-07-31T02:36:03;16.00;99.90
53802;DHT22;39709;53.334;6.534;2023-07-31T02:38:29;16.00;99.90
53802;DHT22;39709;53.334;6.534;2023-07-31T02:40:55;15.90;99.90
53802;DHT22;39709;53.334;6.534;2023-07-31T02:43:20;15.90;99.90
53802;DHT22;39709;53.334;6.534;2023-07-31T02:45:51;16.00;99.90
53802;DHT22;39709;53.334;6.534;2023-07-31T02:48:17;16.00;99.90
53802;DHT22;39709;53.334;6.534;2023-07-31T02:50:42;15.80;99.90
53802;DHT22;39709;53.334;6.534;2023-07-31T02:53:08;15.90;99.90
53802;DHT22;39709;53.334;6.534;2023-07-31T02:55:34;15.90;99.90
53802;DHT22;39709;53.334;6.534;2023-07-31T02:57:59;15.90;99.90
53802;DHT22;39709;53.334;6.534;2023-07-31T03:00:25;15.80;99.90
53802;DHT22;39709;53.334;6.534;2023-07-31T03:02:51;15.80;99.90
53802;DHT22;39709;53.334;6.534;2023-07-31T03:05:16;15.70;99.90
53802;DHT22;39709;53.334;6.534;2023-07-31T03:07:42;15.80;99.90
53802;DHT22;39709;53.334;6.534;2023-07-31T03:10:08;15.70;99.90
53802;DHT22;39709;53.334;6.534;2023-07-31T03:12:34;15.70;99.90
53802;DHT22;39709;53.334;6.534;2023-07-31T03:14:59;15.80;99.90
53802;DHT22;39709;53.334;6.534;2023-07-31T03:17:25;15.70;99.90
53802;DHT22;39709;53.334;6.534;2023-07-31T03:19:51;15.80;99.90
53802;DHT22;39709;53.334;6.534;2023-07-31T03:22:16;15.70;99.90
53802;DHT22;39709;53.334;6.534;2023-07-31T03:24:42;15.70;99.90
53802;DHT22;39709;53.334;6.534;2023-07-31T03:27:08;15.60;99.90
53802;DHT22;39709;53.334;6.534;2023-07-31T03:29:33;15.60;99.90
53802;DHT22;39709;53.334;6.534;2023-07-31T03:31:59;15.60;99.90
53802;DHT22;39709;53.334;6.534;2023-07-31T03:34:25;15.70;99.90
53802;DHT22;39709;53.334;6.534;2023-07-31T03:36:50;15.60;99.90
53802;DHT22;39709;53.334;6.534;2023-07-31T03:39:16;15.60;99.90
53802;DHT22;39709;53.334;6.534;2023-07-31T03:41:41;15.60;99.90
53802;DHT22;39709;53.334;6.534;2023-07-31T03:44:07;15.70;99.90
53802;DHT22;39709;53.334;6.534;2023-07-31T03:46:33;15.70;99.90
53802;DHT22;39709;53.334;6.534;2023-07-31T03:48:59;15.60;99.90
53802;DHT22;39709;53.334;6.534;2023-07-31T03:51:25;15.60;99.90
53802;DHT22;39709;53.334;6.534;2023-07-31T03:53:51;15.70;99.90
53802;DHT22;39709;53.334;6.534;2023-07-31T03:56:16;15.50;99.90
53802;DHT22;39709;53.334;6.534;2023-07-31T03:58:42;15.60;99.90
53802;DHT22;39709;53.334;6.534;2023-07-31T04:01:08;15.60;99.90
53802;DHT22;39709;53.334;6.534;2023-07-31T04:03:33;15.70;99.90
53802;DHT22;39709;53.334;6.534;2023-07-31T04:05:59;15.60;99.90
53802;DHT22;39709;53.334;6.534;2023-07-31T04:08:25;15.70;99.90
53802;DHT22;39709;53.334;6.534;2023-07-31T04:10:51;15.60;99.90
53802;DHT22;39709;53.334;6.534;2023-07-31T04:13:16;15.70;99.90
53802;DHT22;39709;53.334;6.534;2023-07-31T04:15:42;15.70;99.90
53802;DHT22;39709;53.334;6.534;2023-07-31T04:18:08;15.50;99.90
53802;DHT22;39709;53.334;6.534;2023-07-31T04:20:34;15.70;99.90
53802;DHT22;39709;53.334;6.534;2023-07-31T04:22:59;15.50;99.90
53802;DHT22;39709;53.334;6.534;2023-07-31T04:25:25;15.50;99.90
53802;DHT22;39709;53.334;6.534;2023-07-31T04:27:51;15.60;99.90
53802;DHT22;39709;53.334;6.534;2023-07-31T04:30:16;15.50;99.90
53802;DHT22;39709;53.334;6.534;2023-07-31T04:32:42;15.60;99.90
53802;DHT22;39709;53.334;6.534;2023-07-31T04:35:08;15.70;99.90
53802;DHT22;39709;53.334;6.534;2023-07-31T04:37:33;15.60;99.90
53802;DHT22;39709;53.334;6.534;2023-07-31T04:39:59;15.60;99.90
53802;DHT22;39709;53.334;6.534;2023-07-31T04:42:25;15.50;99.90
53802;DHT22;39709;53.334;6.534;2023-07-31T04:44:50;15.70;99.90
53802;DHT22;39709;53.334;6.534;2023-07-31T04:47:18;15.60;99.90
53802;DHT22;39709;53.334;6.534;2023-07-31T04:49:44;15.50;99.90
53802;DHT22;39709;53.334;6.534;2023-07-31T04:52:10;15.50;99.90
53802;DHT22;39709;53.334;6.534;2023-07-31T04:54:35;15.50;99.90
53802;DHT22;39709;53.334;6.534;2023-07-31T04:57:01;15.70;99.90
53802;DHT22;39709;53.334;6.534;2023-07-31T04:59:27;15.70;99.90
53802;DHT22;39709;53.334;6.534;2023-07-31T05:01:52;15.70;99.90
53802;DHT22;39709;53.334;6.534;2023-07-31T05:04:18;15.70;99.90
53802;DHT22;39709;53.334;6.534;2023-07-31T05:06:43;15.70;99.90
53802;DHT22;39709;53.334;6.534;2023-07-31T05:09:09;15.60;99.90
53802;DHT22;39709;53.334;6.534;2023-07-31T05:11:35;15.60;99.90
53802;DHT22;39709;53.334;6.534;2023-07-31T05:14:01;15.70;99.90
53802;DHT22;39709;53.334;6.534;2023-07-31T05:16:27;15.50;99.90
53802;DHT22;39709;53.334;6.534;2023-07-31T05:18:52;15.50;99.90
53802;DHT22;39709;53.334;6.534;2023-07-31T05:21:18;15.60;99.90
53802;DHT22;39709;53.334;6.534;2023-07-31T05:23:44;15.50;99.90
53802;DHT22;39709;53.334;6.534;2023-07-31T05:26:09;15.60;99.90
53802;DHT22;39709;53.334;6.534;2023-07-31T05:28:36;15.70;99.90
53802;DHT22;39709;53.334;6.534;2023-07-31T05:31:05;15.70;99.90
53802;DHT22;39709;53.334;6.534;2023-07-31T05:33:31;15.60;99.90
53802;DHT22;39709;53.334;6.534;2023-07-31T05:35:57;15.60;99.90
53802;DHT22;39709;53.334;6.534;2023-07-31T05:38:22;15.70;99.90
53802;DHT22;39709;53.334;6.534;2023-07-31T05:40:49;15.70;99.90
53802;DHT22;39709;53.334;6.534;2023-07-31T05:43:14;15.80;99.90
53802;DHT22;39709;53.334;6.534;2023-07-31T05:45:42;15.60;99.90
53802;DHT22;39709;53.334;6.534;2023-07-31T05:48:08;15.60;99.90
53802;DHT22;39709;53.334;6.534;2023-07-31T05:50:34;15.60;99.90
53802;DHT22;39709;53.334;6.534;2023-07-31T05:53:00;15.60;99.90
53802;DHT22;39709;53.334;6.534;2023-07-31T05:55:25;15.70;99.90
53802;DHT22;39709;53.334;6.534;2023-07-31T05:57:54;15.70;99.90
53802;DHT22;39709;53.334;6.534;2023-07-31T06:00:20;15.70;99.90
53802;DHT22;39709;53.334;6.534;2023-07-31T06:02:47;15.70;99.90
53802;DHT22;39709;53.334;6.534;2023-07-31T06:05:12;15.80;99.90
53802;DHT22;39709;53.334;6.534;2023-07-31T06:07:38;15.80;99.90
53802;DHT22;39709;53.334;6.534;2023-07-31T06:10:04;15.70;99.90
53802;DHT22;39709;53.334;6.534;2023-07-31T06:12:35;15.80;99.90
53802;DHT22;39709;53.334;6.534;2023-07-31T06:15:01;15.90;99.90
53802;DHT22;39709;53.334;6.534;2023-07-31T06:17:27;15.90;99.90
53802;DHT22;39709;53.334;6.534;2023-07-31T06:19:53;15.90;99.90
53802;DHT22;39709;53.334;6.534;2023-07-31T06:22:19;16.00;99.90
53802;DHT22;39709;53.334;6.534;2023-07-31T06:24:44;16.00;99.90
53802;DHT22;39709;53.334;6.534;2023-07-31T06:27:11;16.10;99.90
53802;DHT22;39709;53.334;6.534;2023-07-31T06:29:36;16.00;99.90
53802;DHT22;39709;53.334;6.534;2023-07-31T06:32:02;16.00;99.90
53802;DHT22;39709;53.334;6.534;2023-07-31T06:34:28;16.10;99.90
53802;DHT22;39709;53.334;6.534;2023-07-31T06:36:55;16.10;99.90
53802;DHT22;39709;53.334;6.534;2023-07-31T06:39:21;16.10;99.90
53802;DHT22;39709;53.334;6.534;2023-07-31T06:41:47;16.10;99.90
53802;DHT22;39709;53.334;6.534;2023-07-31T06:44:12;16.10;99.90
53802;DHT22;39709;53.334;6.534;2023-07-31T06:46:38;16.10;99.90
53802;DHT22;39709;53.334;6.534;2023-07-31T06:49:04;16.30;99.90
53802;DHT22;39709;53.334;6.534;2023-07-31T06:51:29;16.20;99.90
53802;DHT22;39709;53.334;6.534;2023-07-31T06:53:57;16.30;99.90
53802;DHT22;39709;53.334;6.534;2023-07-31T06:56:23;16.40;99.90
53802;DHT22;39709;53.334;6.534;2023-07-31T06:58:49;16.30;99.90
53802;DHT22;39709;53.334;6.534;2023-07-31T07:01:14;16.40;99.90
53802;DHT22;39709;53.334;6.534;2023-07-31T07:03:40;16.40;99.90
53802;DHT22;39709;53.334;6.534;2023-07-31T07:06:06;16.40;99.90
53802;DHT22;39709;53.334;6.534;2023-07-31T07:08:32;16.50;99.90
53802;DHT22;39709;53.334;6.534;2023-07-31T07:10:58;16.50;99.90
53802;DHT22;39709;53.334;6.534;2023-07-31T07:13:23;16.60;99.90
53802;DHT22;39709;53.334;6.534;2023-07-31T07:15:49;16.70;99.90
53802;DHT22;39709;53.334;6.534;2023-07-31T07:18:15;16.80;99.90
53802;DHT22;39709;53.334;6.534;2023-07-31T07:20:50;17.00;99.90
53802;DHT22;39709;53.334;6.534;2023-07-31T07:23:15;16.90;99.90
53802;DHT22;39709;53.334;6.534;2023-07-31T07:25:42;16.90;99.90
53802;DHT22;39709;53.334;6.534;2023-07-31T07:28:14;17.10;99.90
53802;DHT22;39709;53.334;6.534;2023-07-31T07:30:40;17.00;99.90
53802;DHT22;39709;53.334;6.534;2023-07-31T07:33:06;17.10;99.90
53802;DHT22;39709;53.334;6.534;2023-07-31T07:35:35;17.10;99.90
53802;DHT22;39709;53.334;6.534;2023-07-31T07:38:04;17.00;99.90
53802;DHT22;39709;53.334;6.534;2023-07-31T07:40:30;17.10;99.90
53802;DHT22;39709;53.334;6.534;2023-07-31T07:42:56;17.00;99.90
53802;DHT22;39709;53.334;6.534;2023-07-31T07:45:21;17.00;99.90
53802;DHT22;39709;53.334;6.534;2023-07-31T07:47:47;17.00;99.90
53802;DHT22;39709;53.334;6.534;2023-07-31T07:50:12;17.00;99.90
53802;DHT22;39709;53.334;6.534;2023-07-31T07:52:38;17.10;99.90
53802;DHT22;39709;53.334;6.534;2023-07-31T07:55:04;17.10;99.90
53802;DHT22;39709;53.334;6.534;2023-07-31T07:57:30;17.20;99.90
53802;DHT22;39709;53.334;6.534;2023-07-31T07:59:55;17.10;99.90
53802;DHT22;39709;53.334;6.534;2023-07-31T08:02:22;17.10;99.90
53802;DHT22;39709;53.334;6.534;2023-07-31T08:04:47;17.10;99.90
53802;DHT22;39709;53.334;6.534;2023-07-31T08:07:14;17.30;99.90
53802;DHT22;39709;53.334;6.534;2023-07-31T08:09:39;17.30;99.90
53802;DHT22;39709;53.334;6.534;2023-07-31T08:12:06;17.30;99.90
53802;DHT22;39709;53.334;6.534;2023-07-31T08:14:31;17.30;99.90
53802;DHT22;39709;53.334;6.534;2023-07-31T08:16:57;17.40;99.90
53802;DHT22;39709;53.334;6.534;2023-07-31T08:19:23;17.30;99.90
53802;DHT22;39709;53.334;6.534;2023-07-31T08:21:49;17.30;99.90
53802;DHT22;39709;53.334;6.534;2023-07-31T08:24:14;17.40;99.90
53802;DHT22;39709;53.334;6.534;2023-07-31T08:26:40;17.40;99.90
53802;DHT22;39709;53.334;6.534;2023-07-31T08:29:06;17.40;99.90
53802;DHT22;39709;53.334;6.534;2023-07-31T08:31:32;17.30;99.90
53802;DHT22;39709;53.334;6.534;2023-07-31T08:33:58;17.20;99.90
53802;DHT22;39709;53.334;6.534;2023-07-31T08:36:23;17.20;99.90
53802;DHT22;39709;53.334;6.534;2023-07-31T08:38:49;17.10;99.90
53802;DHT22;39709;53.334;6.534;2023-07-31T08:41:16;17.20;99.90
53802;DHT22;39709;53.334;6.534;2023-07-31T08:43:45;17.20;99.90
53802;DHT22;39709;53.334;6.534;2023-07-31T08:46:11;17.40;99.90
53802;DHT22;39709;53.334;6.534;2023-07-31T08:48:37;17.50;99.90
53802;DHT22;39709;53.334;6.534;2023-07-31T08:51:04;17.50;99.90
53802;DHT22;39709;53.334;6.534;2023-07-31T08:53:29;17.60;99.90
53802;DHT22;39709;53.334;6.534;2023-07-31T08:55:56;17.70;99.90
53802;DHT22;39709;53.334;6.534;2023-07-31T08:58:24;17.80;99.90
53802;DHT22;39709;53.334;6.534;2023-07-31T09:00:51;17.70;99.90
53802;DHT22;39709;53.334;6.534;2023-07-31T09:03:18;17.80;99.90
53802;DHT22;39709;53.334;6.534;2023-07-31T09:05:47;17.90;99.90
53802;DHT22;39709;53.334;6.534;2023-07-31T09:08:14;17.90;99.90
53802;DHT22;39709;53.334;6.534;2023-07-31T09:10:44;18.00;99.90
53802;DHT22;39709;53.334;6.534;2023-07-31T09:13:15;18.00;99.90
53802;DHT22;39709;53.334;6.534;2023-07-31T09:15:43;18.00;99.90
53802;DHT22;39709;53.334;6.534;2023-07-31T09:18:09;18.10;99.90
53802;DHT22;39709;53.334;6.534;2023-07-31T09:20:35;18.00;99.90
53802;DHT22;39709;53.334;6.534;2023-07-31T09:23:10;18.00;99.90
53802;DHT22;39709;53.334;6.534;2023-07-31T09:25:37;18.00;99.90
53802;DHT22;39709;53.334;6.534;2023-07-31T09:28:06;18.20;99.90
53802;DHT22;39709;53.334;6.534;2023-07-31T09:30:50;18.20;99.90
53802;DHT22;39709;53.334;6.534;2023-07-31T09:33:17;18.20;99.90
53802;DHT22;39709;53.334;6.534;2023-07-31T09:35:43;18.20;99.90
53802;DHT22;39709;53.334;6.534;2023-07-31T09:38:14;18.30;99.90
53802;DHT22;39709;53.334;6.534;2023-07-31T09:40:42;18.30;99.90
53802;DHT22;39709;53.334;6.534;2023-07-31T09:43:12;18.40;99.90
53802;DHT22;39709;53.334;6.534;2023-07-31T09:45:40;18.50;99.90
53802;DHT22;39709;53.334;6.534;2023-07-31T09:48:17;18.40;99.90
53802;DHT22;39709;53.334;6.534;2023-07-31T09:50:47;18.50;99.90
53802;DHT22;39709;53.334;6.534;2023-07-31T09:53:14;18.50;99.90
53802;DHT22;39709;53.334;6.534;2023-07-31T09:55:41;18.50;99.90
53802;DHT22;39709;53.334;6.534;2023-07-31T09:58:12;18.40;99.90
53802;DHT22;39709;53.334;6.534;2023-07-31T10:00:38;18.30;99.90
53802;DHT22;39709;53.334;6.534;2023-07-31T10:03:06;18.30;99.90
53802;DHT22;39709;53.334;6.534;2023-07-31T10:05:53;18.30;99.90
53802;DHT22;39709;53.334;6.534;2023-07-31T10:08:21;18.30;99.90
53802;DHT22;39709;53.334;6.534;2023-07-31T10:10:49;18.20;99.90
53802;DHT22;39709;53.334;6.534;2023-07-31T10:13:15;18.20;99.90
53802;DHT22;39709;53.334;6.534;2023-07-31T10:15:42;18.20;99.90
53802;DHT22;39709;53.334;6.534;2023-07-31T10:18:09;18.20;99.90
53802;DHT22;39709;53.334;6.534;2023-07-31T10:20:36;18.10;99.90
53802;DHT22;39709;53.334;6.534;2023-07-31T10:23:03;18.30;99.90
53802;DHT22;39709;53.334;6.534;2023-07-31T10:25:29;18.40;99.90
53802;DHT22;39709;53.334;6.534;2023-07-31T10:27:55;18.50;99.90
53802;DHT22;39709;53.334;6.534;2023-07-31T10:30:26;18.30;99.90
53802;DHT22;39709;53.334;6.534;2023-07-31T10:32:52;18.30;99.90
53802;DHT22;39709;53.334;6.534;2023-07-31T10:35:20;18.40;99.90
53802;DHT22;39709;53.334;6.534;2023-07-31T10:37:47;18.40;99.90
53802;DHT22;39709;53.334;6.534;2023-07-31T10:40:24;18.20;99.90
53802;DHT22;39709;53.334;6.534;2023-07-31T10:42:57;18.20;99.90
53802;DHT22;39709;53.334;6.534;2023-07-31T10:45:33;18.00;99.90
53802;DHT22;39709;53.334;6.534;2023-07-31T10:48:15;18.00;99.90
53802;DHT22;39709;53.334;6.534;2023-07-31T10:50:56;18.00;99.90
53802;DHT22;39709;53.334;6.534;2023-07-31T10:53:29;18.10;99.90
53802;DHT22;39709;53.334;6.534;2023-07-31T10:55:58;18.20;99.90
53802;DHT22;39709;53.334;6.534;2023-07-31T10:58:25;18.30;99.90
53802;DHT22;39709;53.334;6.534;2023-07-31T11:00:55;18.30;99.90
53802;DHT22;39709;53.334;6.534;2023-07-31T11:03:25;18.30;99.90
53802;DHT22;39709;53.334;6.534;2023-07-31T11:06:02;18.30;99.90
53802;DHT22;39709;53.334;6.534;2023-07-31T11:08:30;18.30;99.90
53802;DHT22;39709;53.334;6.534;2023-07-31T11:16:07;18.20;99.90
53802;DHT22;39709;53.334;6.534;2023-07-31T11:18:33;18.20;99.90
53802;DHT22;39709;53.334;6.534;2023-07-31T11:20:58;18.30;99.90
53802;DHT22;39709;53.334;6.534;2023-07-31T11:23:24;18.50;99.90
53802;DHT22;39709;53.334;6.534;2023-07-31T11:25:50;18.50;99.90
53802;DHT22;39709;53.334;6.534;2023-07-31T11:28:17;18.60;99.90
53802;DHT22;39709;53.334;6.534;2023-07-31T11:30:44;18.60;99.90
53802;DHT22;39709;53.334;6.534;2023-07-31T11:33:12;18.60;99.90
53802;DHT22;39709;53.334;6.534;2023-07-31T11:35:46;18.80;99.90
53802;DHT22;39709;53.334;6.534;2023-07-31T11:38:23;18.90;99.90
53802;DHT22;39709;53.334;6.534;2023-07-31T11:40:50;19.00;99.90
53802;DHT22;39709;53.334;6.534;2023-07-31T11:43:17;19.20;99.90
53802;DHT22;39709;53.334;6.534;2023-07-31T11:45:55;19.30;99.90
53802;DHT22;39709;53.334;6.534;2023-07-31T11:48:29;19.40;99.90
53802;DHT22;39709;53.334;6.534;2023-07-31T11:50:59;19.40;99.90
53802;DHT22;39709;53.334;6.534;2023-07-31T11:53:36;19.30;99.90
53802;DHT22;39709;53.334;6.534;2023-07-31T11:56:03;19.20;99.90
53802;DHT22;39709;53.334;6.534;2023-07-31T11:58:34;19.40;99.90
53802;DHT22;39709;53.334;6.534;2023-07-31T12:01:00;19.40;99.90
53802;DHT22;39709;53.334;6.534;2023-07-31T12:03:27;19.40;99.90
53802;DHT22;39709;53.334;6.534;2023-07-31T12:05:53;19.40;99.90
53802;DHT22;39709;53.334;6.534;2023-07-31T12:08:21;19.30;99.90
53802;DHT22;39709;53.334;6.534;2023-07-31T12:10:50;19.40;99.90
53802;DHT22;39709;53.334;6.534;2023-07-31T12:13:24;19.40;99.90
53802;DHT22;39709;53.334;6.534;2023-07-31T12:15:56;19.60;99.90
53802;DHT22;39709;53.334;6.534;2023-07-31T12:18:24;19.70;99.90
53802;DHT22;39709;53.334;6.534;2023-07-31T12:20:57;19.80;99.90
53802;DHT22;39709;53.334;6.534;2023-07-31T12:23:28;19.90;99.90
53802;DHT22;39709;53.334;6.534;2023-07-31T12:28:37;19.90;99.90
53802;DHT22;39709;53.334;6.534;2023-07-31T12:31:04;19.80;99.90
53802;DHT22;39709;53.334;6.534;2023-07-31T12:33:35;19.70;99.90
53802;DHT22;39709;53.334;6.534;2023-07-31T12:36:02;19.70;99.90
53802;DHT22;39709;53.334;6.534;2023-07-31T12:38:29;19.80;99.90
53802;DHT22;39709;53.334;6.534;2023-07-31T12:40:54;19.80;99.90
53802;DHT22;39709;53.334;6.534;2023-07-31T12:43:20;19.80;99.90
53802;DHT22;39709;53.334;6.534;2023-07-31T12:45:46;19.90;99.90
53802;DHT22;39709;53.334;6.534;2023-07-31T12:48:13;19.80;99.90
53802;DHT22;39709;53.334;6.534;2023-07-31T12:50:39;19.70;99.90
53802;DHT22;39709;53.334;6.534;2023-07-31T12:53:05;19.60;99.90
53802;DHT22;39709;53.334;6.534;2023-07-31T12:55:31;19.60;99.90
53802;DHT22;39709;53.334;6.534;2023-07-31T12:58:00;19.50;99.90
53802;DHT22;39709;53.334;6.534;2023-07-31T13:00:25;19.50;99.90
53802;DHT22;39709;53.334;6.534;2023-07-31T13:02:51;19.60;99.90
53802;DHT22;39709;53.334;6.534;2023-07-31T13:05:17;19.70;99.90
53802;DHT22;39709;53.334;6.534;2023-07-31T13:07:45;19.60;99.90
53802;DHT22;39709;53.334;6.534;2023-07-31T13:10:11;19.60;99.90
53802;DHT22;39709;53.334;6.534;2023-07-31T13:12:36;19.70;99.90
53802;DHT22;39709;53.334;6.534;2023-07-31T13:15:06;19.60;99.90
53802;DHT22;39709;53.334;6.534;2023-07-31T13:17:32;19.60;99.90
53802;DHT22;39709;53.334;6.534;2023-07-31T13:19:58;19.60;99.90
53802;DHT22;39709;53.334;6.534;2023-07-31T13:22:24;19.60;99.90
53802;DHT22;39709;53.334;6.534;2023-07-31T13:24:50;19.60;99.90
53802;DHT22;39709;53.334;6.534;2023-07-31T13:27:15;19.60;99.90
53802;DHT22;39709;53.334;6.534;2023-07-31T13:29:48;19.50;99.90
53802;DHT22;39709;53.334;6.534;2023-07-31T13:32:19;19.50;99.90
53802;DHT22;39709;53.334;6.534;2023-07-31T13:34:48;19.50;99.90
53802;DHT22;39709;53.334;6.534;2023-07-31T13:37:14;19.50;99.90
53802;DHT22;39709;53.334;6.534;2023-07-31T13:39:40;19.50;99.90
53802;DHT22;39709;53.334;6.534;2023-07-31T13:42:07;19.60;99.90
53802;DHT22;39709;53.334;6.534;2023-07-31T13:44:40;19.60;99.90
53802;DHT22;39709;53.334;6.534;2023-07-31T13:47:06;19.70;99.90
53802;DHT22;39709;53.334;6.534;2023-07-31T13:49:32;19.70;99.90
53802;DHT22;39709;53.334;6.534;2023-07-31T13:51:58;19.80;99.90
53802;DHT22;39709;53.334;6.534;2023-07-31T13:54:24;19.90;99.90
53802;DHT22;39709;53.334;6.534;2023-07-31T13:56:51;19.90;99.90
53802;DHT22;39709;53.334;6.534;2023-07-31T13:59:17;20.10;99.90
53802;DHT22;39709;53.334;6.534;2023-07-31T14:01:44;20.20;99.90
53802;DHT22;39709;53.334;6.534;2023-07-31T14:04:09;20.50;99.90
53802;DHT22;39709;53.334;6.534;2023-07-31T14:06:35;20.50;99.90
53802;DHT22;39709;53.334;6.534;2023-07-31T14:09:01;20.60;99.90
53802;DHT22;39709;53.334;6.534;2023-07-31T14:11:28;20.70;99.90
53802;DHT22;39709;53.334;6.534;2023-07-31T14:13:55;20.80;99.90
53802;DHT22;39709;53.334;6.534;2023-07-31T14:16:21;20.70;91.90
53802;DHT22;39709;53.334;6.534;2023-07-31T14:18:47;20.60;99.90
53802;DHT22;39709;53.334;6.534;2023-07-31T14:21:13;20.60;99.90
53802;DHT22;39709;53.334;6.534;2023-07-31T14:23:39;20.60;99.90
53802;DHT22;39709;53.334;6.534;2023-07-31T14:26:05;20.50;99.90
53802;DHT22;39709;53.334;6.534;2023-07-31T14:28:31;20.50;99.90
53802;DHT22;39709;53.334;6.534;2023-07-31T14:30:57;20.50;99.90
53802;DHT22;39709;53.334;6.534;2023-07-31T14:33:23;20.40;89.40
53802;DHT22;39709;53.334;6.534;2023-07-31T14:35:49;20.30;99.90
53802;DHT22;39709;53.334;6.534;2023-07-31T14:38:14;20.20;99.90
53802;DHT22;39709;53.334;6.534;2023-07-31T14:40:41;20.10;99.90
53802;DHT22;39709;53.334;6.534;2023-07-31T14:43:07;20.10;95.20
53802;DHT22;39709;53.334;6.534;2023-07-31T14:45:32;20.00;99.90
53802;DHT22;39709;53.334;6.534;2023-07-31T14:47:58;20.00;99.90
53802;DHT22;39709;53.334;6.534;2023-07-31T14:50:25;20.10;99.90
53802;DHT22;39709;53.334;6.534;2023-07-31T14:52:51;20.10;99.90
53802;DHT22;39709;53.334;6.534;2023-07-31T14:55:17;20.10;99.90
53802;DHT22;39709;53.334;6.534;2023-07-31T14:57:43;20.20;99.90
53802;DHT22;39709;53.334;6.534;2023-07-31T15:00:09;20.20;99.90
53802;DHT22;39709;53.334;6.534;2023-07-31T15:02:36;20.20;99.90
53802;DHT22;39709;53.334;6.534;2023-07-31T15:05:02;20.20;99.90
53802;DHT22;39709;53.334;6.534;2023-07-31T15:07:27;20.20;99.90
53802;DHT22;39709;53.334;6.534;2023-07-31T15:09:54;20.10;99.90
53802;DHT22;39709;53.334;6.534;2023-07-31T15:12:19;20.10;99.90
53802;DHT22;39709;53.334;6.534;2023-07-31T15:14:45;20.00;99.90
53802;DHT22;39709;53.334;6.534;2023-07-31T15:17:11;20.00;99.90
53802;DHT22;39709;53.334;6.534;2023-07-31T15:19:36;20.00;99.90
53802;DHT22;39709;53.334;6.534;2023-07-31T15:22:06;20.00;99.90
53802;DHT22;39709;53.334;6.534;2023-07-31T15:24:31;20.00;99.90
53802;DHT22;39709;53.334;6.534;2023-07-31T15:26:57;20.00;99.90
53802;DHT22;39709;53.334;6.534;2023-07-31T15:29:23;19.90;99.90
53802;DHT22;39709;53.334;6.534;2023-07-31T15:31:48;19.90;99.90
53802;DHT22;39709;53.334;6.534;2023-07-31T15:34:15;19.90;99.90
53802;DHT22;39709;53.334;6.534;2023-07-31T15:36:41;20.40;99.90
53802;DHT22;39709;53.334;6.534;2023-07-31T15:39:06;19.90;99.90
53802;DHT22;39709;53.334;6.534;2023-07-31T15:41:36;19.80;99.90
53802;DHT22;39709;53.334;6.534;2023-07-31T15:44:03;19.80;99.90